createdAt,value
2022-12-17T00:01:23.820Z,13.77
2022-12-17T00:04:09.175Z,13.55
2022-12-17T00:06:56.542Z,13.00
2022-12-17T00:09:43.591Z,13.88
2022-12-17T00:12:32.878Z,12.45
2022-12-17T00:15:17.894Z,12.60
2022-12-17T00:18:04.406Z,12.80
2022-12-17T00:20:49.506Z,12.60
2022-12-17T00:23:36.449Z,14.13
2022-12-17T00:26:22.201Z,12.88
2022-12-17T00:29:07.579Z,12.88
2022-12-17T00:31:52.816Z,12.55
2022-12-17T00:34:41.800Z,12.47
2022-12-17T00:37:26.909Z,12.10
2022-12-17T00:40:13.513Z,12.45
2022-12-17T00:42:58.442Z,13.40
2022-12-17T00:45:43.692Z,13.10
2022-12-17T00:48:28.744Z,12.60
2022-12-17T00:51:14.629Z,12.80
2022-12-17T00:53:59.671Z,13.07
2022-12-17T00:56:46.649Z,14.00
2022-12-17T00:59:31.729Z,13.35
2022-12-17T01:02:17.489Z,13.03
2022-12-17T01:05:02.751Z,12.43
2022-12-17T01:07:48.018Z,12.02
2022-12-17T01:10:33.000Z,12.50
2022-12-17T01:13:20.069Z,12.68
2022-12-17T01:16:05.106Z,12.47
2022-12-17T01:18:50.348Z,12.57
2022-12-17T01:21:35.879Z,11.50
2022-12-17T01:24:20.852Z,11.98
2022-12-17T01:27:06.473Z,12.18
2022-12-17T01:29:52.966Z,11.90
2022-12-17T01:32:38.162Z,11.68
2022-12-17T01:35:23.867Z,10.90
2022-12-17T01:38:08.838Z,11.75
2022-12-17T01:40:54.171Z,12.02
2022-12-17T01:43:51.599Z,11.10
2022-12-17T01:46:38.921Z,12.07
2022-12-17T01:49:24.993Z,10.85
2022-12-17T01:52:10.545Z,11.02
2022-12-17T01:54:56.798Z,10.88
2022-12-17T01:57:42.224Z,11.57
2022-12-17T02:00:29.982Z,10.77
2022-12-17T02:03:18.344Z,12.45
2022-12-17T02:06:17.927Z,11.23
2022-12-17T02:09:11.244Z,10.73
2022-12-17T02:12:02.928Z,10.73
2022-12-17T02:14:53.535Z,9.88
2022-12-17T02:17:42.834Z,10.32
2022-12-17T02:20:39.801Z,9.82
2022-12-17T02:23:34.946Z,10.45
2022-12-17T02:26:25.737Z,9.73
2022-12-17T02:29:14.573Z,9.95
2022-12-17T02:32:02.799Z,10.50
2022-12-17T02:34:48.147Z,9.63
2022-12-17T02:37:33.579Z,9.05
2022-12-17T02:40:19.585Z,10.03
2022-12-17T02:43:07.638Z,10.07
2022-12-17T02:45:54.760Z,9.07
2022-12-17T02:48:40.051Z,8.65
2022-12-17T02:51:25.339Z,9.73
2022-12-17T02:54:12.849Z,9.80
2022-12-17T02:56:57.985Z,9.77
2022-12-17T02:59:43.202Z,9.60
2022-12-17T03:02:29.693Z,8.98
2022-12-17T03:05:43.321Z,9.32
2022-12-17T03:08:20.851Z,9.50
2022-12-17T03:11:06.071Z,10.38
2022-12-17T03:13:51.420Z,11.63
2022-12-17T03:16:37.973Z,10.65
2022-12-17T03:19:25.187Z,11.07
2022-12-17T03:22:10.368Z,10.30
2022-12-17T03:24:55.624Z,12.25
2022-12-17T03:27:44.587Z,11.18
2022-12-17T03:30:35.533Z,10.77
2022-12-17T03:33:21.007Z,11.68
2022-12-17T03:36:10.980Z,10.83
2022-12-17T03:38:56.267Z,10.77
2022-12-17T03:41:41.379Z,10.23
2022-12-17T03:44:26.744Z,10.95
2022-12-17T03:47:11.876Z,10.30
2022-12-17T03:49:57.557Z,10.57
2022-12-17T03:52:44.375Z,9.82
2022-12-17T03:55:29.720Z,11.38
2022-12-17T03:58:14.731Z,10.68
2022-12-17T04:01:00.340Z,10.30
2022-12-17T04:03:45.459Z,10.47
2022-12-17T04:06:30.662Z,9.70
2022-12-17T04:09:19.805Z,10.82
2022-12-17T04:12:05.164Z,11.55
2022-12-17T04:14:50.651Z,10.95
2022-12-17T04:17:37.831Z,10.97
2022-12-17T04:20:24.365Z,9.82
2022-12-17T04:23:09.371Z,10.88
2022-12-17T04:25:55.961Z,11.27
2022-12-17T04:28:41.157Z,10.68
2022-12-17T04:31:26.725Z,11.77
2022-12-17T04:34:12.449Z,16.88
2022-12-17T04:36:58.051Z,16.02
2022-12-17T04:39:57.649Z,10.98
2022-12-17T04:42:44.134Z,9.90
2022-12-17T04:45:29.441Z,10.90
2022-12-17T04:48:20.259Z,14.38
2022-12-17T04:51:07.926Z,15.95
2022-12-17T04:53:53.541Z,10.70
2022-12-17T04:56:39.013Z,12.15
2022-12-17T04:59:26.193Z,11.57
2022-12-17T05:02:11.439Z,11.10
2022-12-17T05:05:08.527Z,11.70
2022-12-17T05:07:53.705Z,10.77
2022-12-17T05:10:39.188Z,11.27
2022-12-17T05:13:24.613Z,11.27
2022-12-17T05:16:15.795Z,10.68
2022-12-17T05:19:01.372Z,10.48
2022-12-17T05:21:46.673Z,10.18
2022-12-17T05:24:31.709Z,11.70
2022-12-17T05:27:17.525Z,11.13
2022-12-17T05:30:02.597Z,11.93
2022-12-17T05:32:49.300Z,12.23
2022-12-17T05:35:34.422Z,11.45
2022-12-17T05:38:22.522Z,11.05
2022-12-17T05:41:07.907Z,11.57
2022-12-17T05:43:53.138Z,11.02
2022-12-17T05:46:38.706Z,12.02
2022-12-17T05:49:25.226Z,11.90
2022-12-17T05:52:10.329Z,10.85
2022-12-17T05:54:56.368Z,11.63
2022-12-17T05:57:42.371Z,11.48
2022-12-17T06:00:29.116Z,11.13
2022-12-17T06:03:18.133Z,12.05
2022-12-17T06:06:05.581Z,11.23
2022-12-17T06:08:51.438Z,11.17
2022-12-17T06:11:36.539Z,11.88
2022-12-17T06:14:21.840Z,10.75
2022-12-17T06:17:09.448Z,11.32
2022-12-17T06:19:54.849Z,10.15
2022-12-17T06:22:41.315Z,11.00
2022-12-17T06:25:27.574Z,11.57
2022-12-17T06:28:17.154Z,11.88
2022-12-17T06:31:07.869Z,11.75
2022-12-17T06:33:53.110Z,11.30
2022-12-17T06:36:37.993Z,11.23
2022-12-17T06:39:24.739Z,12.23
2022-12-17T06:42:09.875Z,12.48
2022-12-17T06:44:55.683Z,11.05
2022-12-17T06:47:42.324Z,14.27
2022-12-17T06:50:28.360Z,13.37
2022-12-17T06:53:19.330Z,13.82
2022-12-17T06:56:06.984Z,15.77
2022-12-17T06:58:52.358Z,12.27
2022-12-17T07:01:38.242Z,18.05
2022-12-17T07:04:23.966Z,12.80
2022-12-17T07:07:09.098Z,12.02
2022-12-17T07:09:54.781Z,12.40
2022-12-17T07:12:44.996Z,13.18
2022-12-17T07:15:31.567Z,12.88
2022-12-17T07:18:19.138Z,14.00
2022-12-17T07:21:05.643Z,14.23
2022-12-17T07:23:51.303Z,15.05
2022-12-17T07:26:36.677Z,15.70
2022-12-17T07:29:23.688Z,14.82
2022-12-17T07:32:09.138Z,14.60
2022-12-17T07:34:54.193Z,14.02
2022-12-17T07:37:39.488Z,13.40
2022-12-17T07:40:26.382Z,14.75
2022-12-17T07:43:11.890Z,12.85
2022-12-17T07:45:58.460Z,12.63
2022-12-17T07:48:43.822Z,16.38
2022-12-17T07:51:29.944Z,15.43
2022-12-17T07:54:14.993Z,14.18
2022-12-17T07:57:00.399Z,13.18
2022-12-17T07:59:45.382Z,13.30
2022-12-17T08:02:32.128Z,12.48
2022-12-17T08:05:17.600Z,14.32
2022-12-17T08:08:02.804Z,16.70
2022-12-17T08:10:47.874Z,18.38
2022-12-17T08:13:33.280Z,16.03
2022-12-17T08:16:18.676Z,20.38
2022-12-17T08:19:05.269Z,16.67
2022-12-17T08:21:50.313Z,16.27
2022-12-17T08:24:35.744Z,14.23
2022-12-17T08:27:21.647Z,15.50
2022-12-17T08:30:07.305Z,20.77
2022-12-17T08:32:52.795Z,17.45
2022-12-17T08:35:39.407Z,25.20
2022-12-17T08:38:25.536Z,19.38
2022-12-17T08:41:11.103Z,24.17
2022-12-17T08:43:56.477Z,19.13
2022-12-17T08:46:42.147Z,24.27
2022-12-17T08:49:27.803Z,24.98
2022-12-17T08:52:14.526Z,18.27
2022-12-17T08:54:59.644Z,20.40
2022-12-17T08:57:44.943Z,22.33
2022-12-17T09:00:31.140Z,21.77
2022-12-17T09:03:18.019Z,25.58
2022-12-17T09:06:03.319Z,20.30
2022-12-17T09:08:50.254Z,9.87
2022-12-17T09:11:35.839Z,9.63
2022-12-17T09:14:20.882Z,9.30
2022-12-17T09:17:06.151Z,9.10
2022-12-17T09:19:51.408Z,8.38
2022-12-17T09:22:36.910Z,8.27
2022-12-17T09:25:24.131Z,7.80
2022-12-17T09:28:09.887Z,10.40
2022-12-17T09:30:55.448Z,8.60
2022-12-17T09:33:40.694Z,7.75
2022-12-17T09:36:27.273Z,8.10
2022-12-17T09:39:12.341Z,9.70
2022-12-17T09:42:07.669Z,9.55
2022-12-17T09:45:03.151Z,8.43
2022-12-17T09:47:56.887Z,10.68
2022-12-17T09:50:42.668Z,10.03
2022-12-17T09:53:38.337Z,16.45
2022-12-17T09:56:26.233Z,9.23
2022-12-17T09:59:12.763Z,8.85
2022-12-17T10:02:03.503Z,8.35
2022-12-17T10:04:53.337Z,8.13
2022-12-17T10:07:42.303Z,8.80
2022-12-17T10:10:36.052Z,7.97
2022-12-17T10:13:26.374Z,7.72
2022-12-17T10:16:12.962Z,8.07
2022-12-17T10:18:58.085Z,7.33
2022-12-17T10:21:46.450Z,8.27
2022-12-17T10:24:31.785Z,8.07
2022-12-17T10:27:16.908Z,7.15
2022-12-17T10:30:03.659Z,7.78
2022-12-17T10:32:50.689Z,9.00
2022-12-17T10:35:39.228Z,8.38
2022-12-17T10:38:37.928Z,9.98
2022-12-17T10:41:23.521Z,9.35
2022-12-17T10:44:08.684Z,8.35
2022-12-17T10:46:56.160Z,13.17
2022-12-17T10:49:43.754Z,9.88
2022-12-17T10:52:44.083Z,10.90
2022-12-17T10:55:39.258Z,10.43
2022-12-17T10:58:28.144Z,8.80
2022-12-17T11:01:18.302Z,7.97
2022-12-17T11:04:10.205Z,7.55
2022-12-17T11:07:00.530Z,7.25
2022-12-17T11:09:51.847Z,7.07
2022-12-17T11:12:40.336Z,7.50
2022-12-17T11:15:36.106Z,7.43
2022-12-17T11:18:23.123Z,6.55
2022-12-17T11:21:16.460Z,6.70
2022-12-17T11:24:07.632Z,7.28
2022-12-17T11:26:56.602Z,10.40
2022-12-17T11:29:41.909Z,9.27
2022-12-17T11:32:47.917Z,8.18
2022-12-17T11:35:53.808Z,7.15
2022-12-17T11:38:52.690Z,7.07
2022-12-17T11:41:47.115Z,7.30
2022-12-17T11:44:41.464Z,6.70
2022-12-17T11:47:36.389Z,7.53
2022-12-17T11:50:31.645Z,7.65
2022-12-17T11:53:33.474Z,7.35
2022-12-17T11:56:30.155Z,8.07
2022-12-17T11:59:28.227Z,7.87
2022-12-17T12:02:31.757Z,8.63
2022-12-17T12:05:33.519Z,8.23
2022-12-17T12:08:41.790Z,7.90
2022-12-17T12:11:39.015Z,7.70
2022-12-17T12:14:41.198Z,6.53
2022-12-17T12:17:49.139Z,7.30
2022-12-17T12:20:48.460Z,13.18
2022-12-17T12:23:42.891Z,8.20
2022-12-17T12:26:33.367Z,6.72
2022-12-17T12:29:34.248Z,6.80
2022-12-17T12:32:31.789Z,6.88
2022-12-17T12:35:21.430Z,6.53
2022-12-17T12:38:10.184Z,6.55
2022-12-17T12:41:05.018Z,7.25
2022-12-17T12:43:54.239Z,6.20
2022-12-17T12:46:50.041Z,7.70
2022-12-17T12:49:43.469Z,7.60
2022-12-17T12:52:31.565Z,7.13
2022-12-17T12:55:25.097Z,7.28
2022-12-17T12:58:18.219Z,9.13
2022-12-17T13:01:14.428Z,8.80
2022-12-17T13:04:12.340Z,10.02
2022-12-17T13:06:43.712Z,9.80
2022-12-17T13:09:35.315Z,9.88
2022-12-17T13:12:34.615Z,8.83
2022-12-17T13:15:18.777Z,8.68
2022-12-17T13:17:56.288Z,9.65
2022-12-17T13:20:31.999Z,9.60
2022-12-17T13:23:17.065Z,10.48
2022-12-17T13:25:45.261Z,10.33
2022-12-17T13:28:28.190Z,8.52
2022-12-17T13:31:03.182Z,7.55
2022-12-17T13:33:40.487Z,7.97
2022-12-17T13:36:23.277Z,8.70
2022-12-17T13:38:58.246Z,7.30
2022-12-17T13:41:30.984Z,8.27
2022-12-17T13:44:02.662Z,6.28
2022-12-17T13:46:35.863Z,6.55
2022-12-17T13:49:05.959Z,6.60
2022-12-17T13:51:36.561Z,6.23
2022-12-17T13:54:06.305Z,5.45
2022-12-17T13:56:36.410Z,6.00
2022-12-17T13:59:09.474Z,6.95
2022-12-17T14:01:46.871Z,6.38
2022-12-17T14:04:22.579Z,6.80
2022-12-17T14:06:52.768Z,6.13
2022-12-17T14:09:22.744Z,6.80
2022-12-17T14:12:05.544Z,6.40
2022-12-17T14:14:35.524Z,8.02
2022-12-17T14:17:04.008Z,7.83
2022-12-17T14:19:33.918Z,8.27
2022-12-17T14:22:03.848Z,10.10
2022-12-17T14:24:31.742Z,9.90
2022-12-17T14:27:02.059Z,10.05
2022-12-17T14:29:31.674Z,9.13
2022-12-17T14:32:03.741Z,8.95
2022-12-17T14:34:42.266Z,9.38
2022-12-17T14:37:19.866Z,8.68
2022-12-17T14:39:49.152Z,8.30
2022-12-17T14:42:29.456Z,8.87
2022-12-17T14:44:59.970Z,8.95
2022-12-17T14:47:29.267Z,8.80
2022-12-17T14:50:04.897Z,9.02
2022-12-17T14:52:53.573Z,9.65
2022-12-17T14:55:34.096Z,9.00
2022-12-17T14:58:21.530Z,9.98
2022-12-17T15:00:52.347Z,10.68
2022-12-17T15:03:26.713Z,9.25
2022-12-17T15:05:58.646Z,9.45
2022-12-17T15:08:32.510Z,9.70
2022-12-17T15:11:00.201Z,8.75
2022-12-17T15:13:27.986Z,8.90
2022-12-17T15:15:55.821Z,8.73
2022-12-17T15:18:25.264Z,8.02
2022-12-17T15:20:53.164Z,7.37
2022-12-17T15:23:23.740Z,7.25
2022-12-17T15:25:55.675Z,6.93
2022-12-17T15:28:26.464Z,6.55
2022-12-17T15:30:54.593Z,6.95
2022-12-17T15:33:22.309Z,9.70
2022-12-17T15:35:50.211Z,15.35
2022-12-17T15:38:17.958Z,12.23
2022-12-17T15:40:45.595Z,9.98
2022-12-17T15:43:13.857Z,8.82
2022-12-17T15:45:43.177Z,7.77
2022-12-17T15:48:11.640Z,7.25
2022-12-17T15:50:40.364Z,10.20
2022-12-17T15:53:09.418Z,8.93
2022-12-17T15:55:38.061Z,9.35
2022-12-17T15:58:08.201Z,10.67
2022-12-17T16:00:37.417Z,8.48
2022-12-17T16:03:05.471Z,8.77
2022-12-17T16:05:33.849Z,11.85
2022-12-17T16:08:02.646Z,11.85
2022-12-17T16:10:31.322Z,11.53
2022-12-17T16:12:59.203Z,16.95
2022-12-17T16:15:26.963Z,18.40
2022-12-17T16:17:56.283Z,19.15
2022-12-17T16:20:24.376Z,24.98
2022-12-17T16:22:52.404Z,22.20
2022-12-17T16:25:20.536Z,24.05
2022-12-17T16:27:48.539Z,25.45
2022-12-17T16:30:16.502Z,27.35
2022-12-17T16:32:44.822Z,30.42
2022-12-17T16:35:14.494Z,26.70
2022-12-17T16:37:42.086Z,25.85
2022-12-17T16:40:11.835Z,21.42
2022-12-17T16:42:40.869Z,15.18
2022-12-17T16:45:10.054Z,16.23
2022-12-17T16:47:37.812Z,16.07
2022-12-17T16:50:06.752Z,17.58
2022-12-17T16:52:36.465Z,17.20
2022-12-17T16:55:04.187Z,16.58
2022-12-17T16:57:32.499Z,21.50
2022-12-17T17:00:00.876Z,23.40
2022-12-17T17:02:29.329Z,21.33
2022-12-17T17:04:57.282Z,22.58
2022-12-17T17:07:25.053Z,22.73
2022-12-17T17:09:54.537Z,25.77
2022-12-17T17:12:22.458Z,26.47
2022-12-17T17:14:51.690Z,24.88
2022-12-17T17:17:19.553Z,22.85
2022-12-17T17:20:08.012Z,21.48
2022-12-17T17:22:36.007Z,20.50
2022-12-17T17:25:05.855Z,24.40
2022-12-17T17:27:33.844Z,23.30
2022-12-17T17:30:03.825Z,21.88
2022-12-17T17:32:32.307Z,21.23
2022-12-17T17:35:00.268Z,21.55
2022-12-17T17:37:28.281Z,20.50
2022-12-17T17:39:56.168Z,19.77
2022-12-17T17:42:25.644Z,22.13
2022-12-17T17:44:53.516Z,20.90
2022-12-17T17:47:22.465Z,21.55
2022-12-17T17:49:50.446Z,23.97
2022-12-17T17:52:18.243Z,25.55
2022-12-17T17:54:46.335Z,25.23
2022-12-17T17:57:14.391Z,24.83
2022-12-17T17:59:44.150Z,26.85
2022-12-17T18:02:12.468Z,27.27
2022-12-17T18:04:41.253Z,24.88
2022-12-17T18:07:25.318Z,26.25
2022-12-17T18:09:54.543Z,25.23
2022-12-17T18:12:39.993Z,27.35
2022-12-17T18:15:14.937Z,26.57
2022-12-17T18:17:44.468Z,35.15
2022-12-17T18:20:12.781Z,35.33
2022-12-17T18:22:41.182Z,34.63
2022-12-17T18:25:10.626Z,30.95
2022-12-17T18:27:39.225Z,33.03
2022-12-17T18:30:10.007Z,33.42
2022-12-17T18:32:38.216Z,30.35
2022-12-17T18:35:06.862Z,28.17
2022-12-17T18:37:35.147Z,31.67
2022-12-17T18:40:03.457Z,31.20
2022-12-17T18:42:48.651Z,31.63
2022-12-17T18:45:18.003Z,28.40
2022-12-17T18:47:46.223Z,31.17
2022-12-17T18:50:28.370Z,28.70
2022-12-17T18:52:56.651Z,29.77
2022-12-17T18:55:24.842Z,30.13
2022-12-17T18:57:52.924Z,31.48
2022-12-17T19:00:22.707Z,29.40
2022-12-17T19:02:51.168Z,29.92
2022-12-17T19:05:20.102Z,27.03
2022-12-17T19:07:48.181Z,23.33
2022-12-17T19:10:16.072Z,21.90
2022-12-17T19:12:47.016Z,25.27
2022-12-17T19:15:14.849Z,22.75
2022-12-17T19:17:45.488Z,22.07
2022-12-17T19:20:14.954Z,23.40
2022-12-17T19:22:43.220Z,23.25
2022-12-17T19:25:11.898Z,22.13
2022-12-17T19:27:40.118Z,22.88
2022-12-17T19:30:09.406Z,25.40
2022-12-17T19:32:37.401Z,26.00
2022-12-17T19:35:08.255Z,22.35
2022-12-17T19:37:36.710Z,23.77
2022-12-17T19:40:05.358Z,24.77
2022-12-17T19:42:37.308Z,23.83
2022-12-17T19:45:06.429Z,21.42
2022-12-17T19:47:34.197Z,21.83
2022-12-17T19:50:02.097Z,17.80
2022-12-17T19:52:31.948Z,18.45
2022-12-17T19:55:00.098Z,17.40
2022-12-17T19:57:27.715Z,17.95
2022-12-17T19:59:55.791Z,18.20
2022-12-17T20:02:28.301Z,18.02
2022-12-17T20:04:59.292Z,18.73
2022-12-17T20:07:27.402Z,22.23
2022-12-17T20:09:56.727Z,21.63
2022-12-17T20:12:24.993Z,19.95
2022-12-17T20:14:53.004Z,19.45
2022-12-17T20:17:21.677Z,17.25
2022-12-17T20:19:53.483Z,18.57
2022-12-17T20:22:22.945Z,18.63
2022-12-17T20:24:51.204Z,17.80
2022-12-17T20:27:20.687Z,16.85
2022-12-17T20:29:48.739Z,15.60
2022-12-17T20:32:19.469Z,15.13
2022-12-17T20:34:47.554Z,16.63
2022-12-17T20:37:15.706Z,16.65
2022-12-17T20:39:43.579Z,17.45
2022-12-17T20:42:11.465Z,16.30
2022-12-17T20:44:40.982Z,17.23
2022-12-17T20:47:09.396Z,17.48
2022-12-17T20:49:37.548Z,16.45
2022-12-17T20:52:05.770Z,16.63
2022-12-17T20:54:34.619Z,16.83
2022-12-17T20:57:02.541Z,16.80
2022-12-17T20:59:30.508Z,14.60
2022-12-17T21:01:59.868Z,14.48
2022-12-17T21:04:28.111Z,14.13
2022-12-17T21:06:56.564Z,13.85
2022-12-17T21:09:25.488Z,18.20
2022-12-17T21:11:54.282Z,21.33
2022-12-17T21:14:22.103Z,23.75
2022-12-17T21:16:50.569Z,21.63
2022-12-17T21:19:21.289Z,19.95
2022-12-17T21:21:49.723Z,16.43
2022-12-17T21:24:18.130Z,20.73
2022-12-17T21:26:47.334Z,15.35
2022-12-17T21:29:16.127Z,16.35
2022-12-17T21:31:46.836Z,17.05
2022-12-17T21:34:17.631Z,17.80
2022-12-17T21:36:47.304Z,15.95
2022-12-17T21:39:16.855Z,16.10
2022-12-17T21:42:07.286Z,16.85
2022-12-17T21:44:36.968Z,13.77
2022-12-17T21:47:06.538Z,13.43
2022-12-17T21:49:35.122Z,14.45
2022-12-17T21:52:04.797Z,17.98
2022-12-17T21:54:35.943Z,17.65
2022-12-17T21:57:04.676Z,18.90
2022-12-17T21:59:32.964Z,23.73
2022-12-17T22:02:01.349Z,27.08
2022-12-17T22:04:29.888Z,31.00
2022-12-17T22:07:04.504Z,29.27
2022-12-17T22:10:02.854Z,24.17
2022-12-17T22:12:47.605Z,21.83
2022-12-17T22:15:16.319Z,21.33
2022-12-17T22:17:45.827Z,21.10
2022-12-17T22:20:16.801Z,19.88
2022-12-17T22:22:45.131Z,18.85
2022-12-17T22:25:15.047Z,16.10
2022-12-17T22:27:44.751Z,16.75
2022-12-17T22:30:33.894Z,17.23
2022-12-17T22:33:09.400Z,16.42
2022-12-17T22:37:27.485Z,18.77
2022-12-17T22:42:18.257Z,15.17
2022-12-17T22:44:44.259Z,12.15
2022-12-17T22:44:45.255Z,11.98
2022-12-17T22:47:16.642Z,10.85
2022-12-17T22:49:45.663Z,14.38
2022-12-17T22:52:13.797Z,11.63
2022-12-17T22:54:44.381Z,11.70
2022-12-17T22:57:35.942Z,12.82
2022-12-17T23:00:03.087Z,12.20
2022-12-17T23:02:31.302Z,11.25
2022-12-17T23:05:00.555Z,12.17
2022-12-17T23:07:31.876Z,12.40
2022-12-17T23:10:00.370Z,12.48
2022-12-17T23:12:46.819Z,12.00
2022-12-17T23:15:15.716Z,12.23
2022-12-17T23:17:44.165Z,12.40
2022-12-17T23:20:13.510Z,14.23
2022-12-17T23:22:42.012Z,13.27
2022-12-17T23:25:11.125Z,12.73
2022-12-17T23:27:48.691Z,13.23
2022-12-17T23:30:17.772Z,12.13
2022-12-17T23:32:46.729Z,13.82
2022-12-17T23:35:15.752Z,13.00
2022-12-17T23:37:43.904Z,13.57
2022-12-17T23:40:13.455Z,14.65
2022-12-17T23:42:43.299Z,14.00
2022-12-17T23:45:12.091Z,13.60
2022-12-17T23:47:41.021Z,13.05
2022-12-17T23:50:11.325Z,13.52
2022-12-17T23:52:40.038Z,14.32
2022-12-17T23:55:09.121Z,12.93
2022-12-17T23:57:37.080Z,12.02
